Aeroporto :
LOGIN :

Iscrizione | Disclaimer

   EN    FR    IT 

 










Sommario :    VFR   VFR Marginale   IFR   IFR Intensivo   IFR Molto Intensivo
Visibilità : 
Base nubi : 
>= 8 km
>= 3000ft
5 / 8 km
1000 / 3000 ft
1500m / 5 km
500 / 1000 ft
800 / 1500m
200 / 500 ft
< 800m
< 200 ft
Simboli :   Temporali  Nebbia  Neve Forte  Precipitazioni Forti  Vento > 20 kt
SIGMETs :   Varie  Temporali  Ghiacco  Turbolenza  Onda orograficha  Ceneri Vulcaniche






- Altitudine del aeroporto : 5600 ft
- Codice IATA : SMV


LSZS - Samedan

ULTIMO METAR :
  • 122050Z AUTO 02010KT 9999 OVC070 M02/M05 Q0999

METARs OBSOLETI :
  • 122020Z AUTO 02010KT 9999 OVC070 M02/M05 Q1000
  • 121950Z AUTO 02010KT 9999 FEW029 BKN070 M02/M05 Q1000
  • 121920Z AUTO 03015KT 9999 BKN060 M02/M05 Q0999
  • 121850Z AUTO 04008KT 350V100 9999 BKN060 M03/M05 Q0999
  • 121820Z AUTO VRB03KT 9999 OVC060 M03/M04 Q1000

TAF TAF LSZS
Valido dal 12 a 15 ore il 13 a 00 ore UTC


121425Z 1215/1224 03008KT 4500 -SN SCT025 BKN035 TX00/1215Z
TEMPO 1215/1217 8000 NSW
TEMPO 1217/1224 2000 SHSN BKN009
ATIS : +41 81 834 93 24



MetMap, La meteo Aeronautica in un colpo d'occhio ! - Copyright ORBIFLY Dicembre 2007 - Disclaimer

ORBIFLY MET'MAP TEAM :

Programmazione e sviluppo : Alexandra Zaïnal
Concezione e sviluppo : Baudouin d'Aumeries
Co-Programmazione e sviluppo : Marc-Olivier Méhu
Supporto tecnico e logistico : Manuel Goepfert
Aiuto per la traduzione : Arnaldo La Scala

Contatto : metmap@orbifly.com




FONTI E CREDITI :

   NOAA